Time;durP1;ratioP1;P1;durP2;ratioP2;P2;SDS_P1;SDS_P2;PMS_P1;PMS_P2;Temp;Humidity;BMP_temperature;BMP_pressure;BME280_temperature;BME280_humidity;BME280_pressure;Samples;Min_cycle;Max_cycle;Signal;HPM_P1;HPM_P2
2022/11/03 00:01:42;;;;;;;17.13;4.57;;;;;;;13.47;57.16;97304.63;4991679;28;20089;-57
2022/11/03 00:04:11;;;;;;;14.60;4.90;;;;;;;13.50;57.13;97306.66;4991504;28;20054;-57
2022/11/03 00:06:40;;;;;;;11.68;4.75;;;;;;;13.55;57.00;97309.91;4991195;28;20086;-57
2022/11/03 00:09:10;;;;;;;14.05;4.60;;;;;;;13.63;56.87;97308.78;4991079;28;20124;-58
2022/11/03 00:11:38;;;;;;;43.30;14.70;;;;;;;13.26;58.50;97291.31;4991156;28;20056;-57
2022/11/03 00:14:06;;;;;;;35.28;11.85;;;;;;;13.40;58.17;97307.38;4988759;28;20456;-59
2022/11/03 00:16:32;;;;;;;33.25;9.63;;;;;;;13.02;58.36;97257.69;4990767;28;20544;-57
2022/11/03 00:18:59;;;;;;;26.90;8.85;;;;;;;13.29;58.06;97301.66;4991097;28;20137;-58
2022/11/03 00:21:26;;;;;;;27.77;7.80;;;;;;;13.50;57.65;97312.22;5005758;28;20058;-58
2022/11/03 00:23:53;;;;;;;20.85;4.60;;;;;;;13.25;56.82;97238.84;4989622;28;20088;-57
2022/11/03 00:26:23;;;;;;;15.45;4.53;;;;;;;12.86;60.59;97327.38;4998978;28;20155;-58
2022/11/03 00:28:52;;;;;;;16.17;4.70;;;;;;;13.02;59.94;97328.00;5010318;28;20104;-58
2022/11/03 00:31:25;;;;;;;12.20;4.72;;;;;;;13.19;59.21;97313.50;5008953;28;20066;-57
2022/11/03 00:33:53;;;;;;;21.70;6.80;;;;;;;13.29;58.79;97332.28;5009118;28;20057;-57
2022/11/03 00:36:25;;;;;;;18.63;6.45;;;;;;;13.29;58.82;97307.22;5010374;28;20160;-57
2022/11/03 00:38:52;;;;;;;16.10;5.50;;;;;;;13.44;58.44;97303.44;5010250;28;20062;-57
2022/11/03 00:41:20;;;;;;;15.65;5.15;;;;;;;13.55;57.93;97304.34;4978369;28;20057;-57
2022/11/03 00:43:48;;;;;;;17.65;5.38;;;;;;;13.61;57.93;97308.34;5030252;28;20140;-57
2022/11/03 00:46:15;;;;;;;14.85;5.25;;;;;;;13.59;57.41;97316.28;5029980;28;20577;-58
2022/11/03 00:48:42;;;;;;;19.10;4.55;;;;;;;13.51;58.58;97316.63;5028655;28;20061;-56
2022/11/03 00:51:09;;;;;;;11.95;5.53;;;;;;;13.59;58.46;97313.50;5030248;28;20501;-56
2022/11/03 00:53:38;;;;;;;18.60;7.47;;;;;;;13.23;57.90;97230.88;5028786;28;20062;-55
2022/11/03 00:56:08;;;;;;;24.80;8.27;;;;;;;13.70;58.28;97297.69;5029596;28;20049;-55
2022/11/03 00:58:35;;;;;;;28.85;8.82;;;;;;;13.71;58.46;97301.28;5027624;28;20096;-56
2022/11/03 01:01:06;;;;;;;24.42;7.38;;;;;;;13.85;57.46;97301.41;5027153;28;20049;-56
2022/11/03 01:03:35;;;;;;;20.98;7.50;;;;;;;13.83;57.87;97303.00;5026613;28;20046;-55
2022/11/03 01:08:49;;;;;;;12.25;4.55;;;;;;;13.80;57.26;97281.50;5026879;28;20610;-56
2022/11/03 01:14:13;;;;;;;15.82;5.10;;;;;;;13.84;57.90;97287.88;5026832;28;20141;-55
2022/11/03 01:16:41;;;;;;;9.95;5.18;;;;;;;13.40;58.12;97227.44;5026804;28;20143;-57
2022/11/03 01:19:07;;;;;;;15.98;4.68;;;;;;;13.95;57.93;97306.28;5026808;28;20119;-57
2022/11/03 01:21:35;;;;;;;16.75;5.47;;;;;;;13.96;58.15;97290.38;5026802;28;20049;-55
2022/11/03 01:24:03;;;;;;;14.18;5.03;;;;;;;13.96;57.79;97307.09;5027045;28;20085;-56
2022/11/03 01:26:30;;;;;;;16.50;3.88;;;;;;;13.61;57.00;97224.84;5024740;28;20085;-56
2022/11/03 01:28:59;;;;;;;33.22;11.32;;;;;;;13.55;59.48;97293.19;5026393;28;20508;-56
2022/11/03 01:31:27;;;;;;;26.25;9.73;;;;;;;13.81;59.00;97283.88;5026326;28;20439;-56
2022/11/03 01:33:55;;;;;;;18.65;6.32;;;;;;;13.66;58.40;97282.97;5025908;28;20527;-55
2022/11/03 01:36:22;;;;;;;26.75;8.57;;;;;;;13.83;58.67;97292.63;5026064;28;20071;-56
2022/11/03 01:38:49;;;;;;;16.30;6.60;;;;;;;13.81;58.79;97291.44;5026100;28;20140;-56
2022/11/03 01:41:19;;;;;;;22.15;6.80;;;;;;;13.85;59.09;97290.28;5025802;28;20512;-57
2022/11/03 01:44:30;;;;;;;18.95;6.57;;;;;;;13.79;58.75;97269.53;5026020;28;20102;-57
2022/11/03 01:46:59;;;;;;;77.38;23.52;;;;;;;13.92;58.60;97295.91;5003033;28;20132;-56
2022/11/03 01:49:35;;;;;;;17.23;6.15;;;;;;;13.35;60.40;97294.59;5003590;28;20082;-57
2022/11/03 01:52:14;;;;;;;22.83;7.32;;;;;;;13.56;59.73;97285.66;5007885;28;20140;-57
2022/11/03 01:54:44;;;;;;;14.38;5.25;;;;;;;13.44;60.40;97292.31;5026193;28;20077;-57
2022/11/03 01:57:18;;;;;;;18.33;5.70;;;;;;;13.13;60.35;97264.97;5026504;28;20140;-58
2022/11/03 01:59:47;;;;;;;16.98;5.55;;;;;;;13.31;59.72;97271.50;5025906;28;20057;-55
2022/11/03 02:02:14;;;;;;;18.60;5.88;;;;;;;13.53;60.42;97301.13;5024415;28;20132;-56
2022/11/03 02:04:41;;;;;;;15.45;6.28;;;;;;;13.11;60.34;97245.06;5026451;28;20057;-56
2022/11/03 02:07:23;;;;;;;13.85;5.75;;;;;;;13.60;60.09;97295.63;5024444;28;20317;-57
2022/11/03 02:09:50;;;;;;;20.98;5.38;;;;;;;12.18;60.01;97063.00;5024513;28;20130;-57
2022/11/03 02:12:20;;;;;;;19.35;6.22;;;;;;;13.68;60.21;97297.31;5026024;28;20081;-57
2022/11/03 02:15:05;;;;;;;23.67;8.35;;;;;;;13.48;60.42;97297.91;5025570;28;20204;-58
2022/11/03 02:17:33;;;;;;;23.90;8.98;;;;;;;13.53;60.51;97312.25;5025214;28;20054;-57
2022/11/03 02:20:16;;;;;;;19.23;6.00;;;;;;;13.54;60.70;97302.75;5025656;28;20503;-58
2022/11/03 02:23:03;;;;;;;35.58;12.70;;;;;;;13.32;61.39;97306.50;5025417;28;20485;-57
2022/11/03 02:25:49;;;;;;;23.65;8.00;;;;;;;13.43;61.29;97296.28;5025627;28;20049;-57
2022/11/03 02:28:23;;;;;;;56.25;19.00;;;;;;;13.22;61.71;97284.91;5023640;28;20161;-57
2022/11/03 02:31:12;;;;;;;;;;;;;;;13.25;62.32;97300.84;5025769;28;20862;-57
2022/11/03 02:33:51;;;;;;;35.13;11.63;;;;;;;13.27;62.33;97304.06;5025155;28;20378;-58
2022/11/03 02:36:26;;;;;;;24.67;7.93;;;;;;;13.30;62.07;97292.16;5025151;28;20092;-58
2022/11/03 02:39:09;;;;;;;15.13;6.10;;;;;;;13.37;61.50;97297.00;5024772;28;20439;-57
2022/11/03 02:41:38;;;;;;;18.00;5.68;;;;;;;13.50;60.23;97299.09;5023818;28;20122;-57
2022/11/03 02:44:11;;;;;;;13.68;4.50;;;;;;;13.12;59.90;97252.22;5023709;28;20128;-56
2022/11/03 02:46:40;;;;;;;13.20;4.78;;;;;;;13.06;59.60;97219.56;5025184;28;20128;-58
2022/11/03 02:49:07;;;;;;;14.20;4.65;;;;;;;13.48;59.47;97287.56;5024788;28;20136;-56
2022/11/03 02:51:34;;;;;;;17.10;5.47;;;;;;;13.72;59.22;97302.09;5024912;28;20104;-56
2022/11/03 02:54:03;;;;;;;15.63;4.75;;;;;;;13.79;58.85;97313.28;5025049;28;20128;-56
2022/11/03 02:56:34;;;;;;;17.27;4.88;;;;;;;13.85;58.65;97311.78;5024728;28;20850;-56
2022/11/03 02:59:05;;;;;;;15.45;5.05;;;;;;;13.85;59.42;97317.34;5024878;28;20463;-56
2022/11/03 03:01:33;;;;;;;15.00;4.88;;;;;;;13.96;58.72;97318.22;5024771;28;20132;-56
2022/11/03 03:04:06;;;;;;;18.00;5.15;;;;;;;13.42;61.45;97355.09;5025003;28;20156;-55
2022/11/03 03:06:41;;;;;;;15.02;5.40;;;;;;;13.34;61.53;97298.53;5024624;28;20160;-56
2022/11/03 03:09:15;;;;;;;17.08;4.93;;;;;;;11.62;60.20;97012.31;5025103;28;20507;-55
2022/11/03 03:11:45;;;;;;;17.05;4.93;;;;;;;13.04;60.73;97258.88;5025016;28;20142;-55
2022/11/03 03:14:17;;;;;;;12.80;4.47;;;;;;;13.56;60.78;97317.06;5024761;28;20109;-55
2022/11/03 03:17:28;;;;;;;28.45;8.57;;;;;;;13.53;59.60;97306.69;5024672;28;20099;-57
2022/11/03 03:20:07;;;;;;;15.82;5.97;;;;;;;13.53;59.45;97295.56;5023066;28;20435;-56
2022/11/03 03:22:33;;;;;;;18.65;6.85;;;;;;;13.17;62.02;97326.97;5039211;28;20077;-55
2022/11/03 03:25:26;;;;;;;18.15;6.05;;;;;;;13.24;61.92;97324.28;5024493;28;20542;-56
2022/11/03 03:28:00;;;;;;;16.63;5.10;;;;;;;13.31;61.44;97321.56;5004649;28;20145;-57
2022/11/03 03:30:28;;;;;;;;;;;;;;;13.48;60.14;97326.50;5004892;28;20049;-56
2022/11/03 03:32:58;;;;;;;17.27;5.47;;;;;;;13.24;59.29;97293.69;5003344;28;19925;-56
2022/11/03 03:35:29;;;;;;;9.90;4.45;;;;;;;13.24;62.30;97340.97;5003374;28;20161;-55
2022/11/03 03:38:00;;;;;;;15.00;5.63;;;;;;;12.88;63.45;97344.47;5004918;28;20081;-57
2022/11/03 03:40:35;;;;;;;18.13;6.70;;;;;;;13.20;63.46;97354.03;5004396;28;20140;-57
2022/11/03 03:43:05;;;;;;;19.20;5.93;;;;;;;13.17;63.62;97346.47;5004205;28;20560;-56
2022/11/03 03:45:34;;;;;;;13.63;5.18;;;;;;;12.35;64.07;97233.78;5004765;28;20088;-57
2022/11/03 03:48:02;;;;;;;13.85;6.05;;;;;;;12.74;65.46;97346.28;5004607;28;20050;-57
2022/11/03 03:50:34;;;;;;;20.88;6.30;;;;;;;12.74;64.53;97313.69;5004570;28;20133;-58
2022/11/03 03:53:03;;;;;;;16.85;6.30;;;;;;;13.11;64.02;97339.63;5004356;28;20137;-58
2022/11/03 03:55:41;;;;;;;17.63;5.78;;;;;;;13.18;63.27;97328.56;5004725;28;20133;-59
2022/11/03 03:58:11;;;;;;;12.73;5.13;;;;;;;13.14;63.88;97344.44;5004274;28;20141;-57
2022/11/03 04:00:41;;;;;;;14.95;5.72;;;;;;;12.90;63.97;97300.41;5002887;28;20073;-57
2022/11/03 04:03:16;;;;;;;14.77;5.68;;;;;;;13.26;63.79;97341.38;5004363;28;20049;-58
2022/11/03 04:05:43;;;;;;;13.40;5.13;;;;;;;13.35;62.89;97339.13;5004534;28;20123;-55
2022/11/03 04:08:11;;;;;;;20.83;6.78;;;;;;;13.03;64.33;97351.84;5004577;28;20581;-58
2022/11/03 04:10:38;;;;;;;16.48;6.35;;;;;;;12.37;67.34;97354.47;5004534;28;20869;-55
2022/11/03 04:24:07;;;;;;;11.27;4.65;;;;;;;12.85;65.94;97353.56;5003930;28;20523;-55
2022/11/03 04:26:34;;;;;;;19.10;4.95;;;;;;;12.89;66.27;97365.53;5012923;28;20128;-55
2022/11/03 04:29:00;;;;;;;15.35;5.63;;;;;;;12.29;68.49;97358.34;5022454;28;20136;-56
2022/11/03 04:31:30;;;;;;;16.10;6.05;;;;;;;12.51;67.76;97371.38;5023931;28;20076;-55
2022/11/03 04:33:57;;;;;;;16.10;6.57;;;;;;;12.65;67.09;97362.41;5024869;28;20112;-56
2022/11/03 04:36:24;;;;;;;22.88;6.75;;;;;;;12.57;66.19;97369.03;5027705;28;20140;-55
2022/11/03 04:38:51;;;;;;;22.13;5.95;;;;;;;12.40;67.70;97375.97;5027053;28;20148;-56
2022/11/03 04:41:30;;;;;;;16.60;6.03;;;;;;;12.21;67.08;97326.06;5027391;28;20543;-56
2022/11/03 04:43:57;;;;;;;15.43;5.70;;;;;;;12.30;68.02;97348.03;5026275;28;20049;-56
2022/11/03 04:46:29;;;;;;;12.13;6.00;;;;;;;12.46;68.15;97380.00;5027413;28;20151;-58
2022/11/03 04:49:00;;;;;;;20.92;6.70;;;;;;;12.37;67.88;97371.16;5027242;28;20140;-58
2022/11/03 04:51:32;;;;;;;17.70;6.03;;;;;;;12.52;67.32;97384.06;5025767;28;20141;-55
2022/11/03 04:54:03;;;;;;;25.77;7.07;;;;;;;12.53;67.16;97385.69;5026916;28;20141;-58
2022/11/03 04:56:30;;;;;;;18.83;7.63;;;;;;;12.57;67.32;97403.19;5025308;28;20114;-57
2022/11/03 04:58:57;;;;;;;22.38;7.30;;;;;;;12.51;67.83;97399.16;5026665;28;20432;-57
2022/11/03 05:01:24;;;;;;;30.92;8.25;;;;;;;12.46;68.27;97399.47;5026562;28;20512;-58
2022/11/03 05:03:53;;;;;;;30.38;8.60;;;;;;;12.32;68.58;97374.25;5027210;28;20050;-54
2022/11/03 05:06:23;;;;;;;31.13;11.07;;;;;;;12.25;68.55;97362.22;5026520;28;20065;-58
2022/11/03 05:09:01;;;;;;;18.02;9.10;;;;;;;12.56;68.00;97390.50;5026467;28;20085;-57
2022/11/03 05:11:40;;;;;;;22.55;9.13;;;;;;;12.60;67.55;97402.44;5025291;28;20103;-57
2022/11/03 05:14:30;;;;;;;29.55;11.60;;;;;;;12.47;67.29;97403.84;5026922;28;20132;-57
2022/11/03 05:16:59;;;;;;;37.25;12.30;;;;;;;12.29;66.37;97350.00;5025536;28;20123;-57
2022/11/03 05:19:25;;;;;;;53.80;27.42;;;;;;;12.71;65.51;97414.53;5026514;28;20103;-57
2022/11/03 05:21:55;;;;;;;57.17;31.05;;;;;;;12.55;65.29;97383.31;5026539;28;20128;-55
2022/11/03 05:24:24;;;;;;;29.88;15.05;;;;;;;12.83;64.41;97419.06;5026119;28;20488;-55
2022/11/03 05:26:54;;;;;;;37.78;15.32;;;;;;;12.89;64.00;97426.72;5026671;28;20049;-56
2022/11/03 05:29:33;;;;;;;34.15;15.90;;;;;;;12.94;63.98;97411.69;5026608;28;20077;-55
2022/11/03 05:32:00;;;;;;;31.20;14.65;;;;;;;12.91;64.74;97435.50;5025986;28;20099;-55
2022/11/03 05:34:32;;;;;;;46.78;17.52;;;;;;;12.91;65.08;97441.06;5026697;28;20085;-56
2022/11/03 05:37:20;;;;;;;29.67;11.82;;;;;;;12.84;65.29;97432.59;5024226;28;20132;-58
2022/11/03 05:39:57;;;;;;;27.67;9.85;;;;;;;10.16;65.61;97018.81;5018598;28;20124;-56
2022/11/03 05:42:31;;;;;;;32.03;9.57;;;;;;;12.86;66.41;97460.03;5024754;28;20595;-57
2022/11/03 05:45:02;;;;;;;23.42;8.20;;;;;;;12.68;67.29;97470.06;5023827;28;20053;-58
2022/11/03 05:47:36;;;;;;;21.67;9.07;;;;;;;12.72;67.48;97443.94;5025812;28;20507;-56
2022/11/03 05:50:16;;;;;;;21.17;8.55;;;;;;;12.92;66.86;97464.06;5024011;28;20128;-58
2022/11/03 05:52:45;;;;;;;22.13;8.80;;;;;;;12.82;66.42;97448.06;5024584;28;20069;-59
2022/11/03 05:55:28;;;;;;;20.02;8.02;;;;;;;13.11;65.82;97462.00;5025771;28;20057;-55
2022/11/03 05:57:58;;;;;;;20.00;8.85;;;;;;;13.03;65.14;97432.50;5025771;28;20076;-56
2022/11/03 06:00:31;;;;;;;26.73;10.50;;;;;;;13.34;65.04;97470.28;5024777;28;20150;-59
2022/11/03 06:02:58;;;;;;;27.40;9.75;;;;;;;13.17;64.98;97432.69;5025744;28;20152;-58
2022/11/03 06:05:26;;;;;;;93.28;34.08;;;;;;;12.90;64.25;97411.63;5025813;28;20049;-58
2022/11/03 06:07:56;;;;;;;50.28;18.35;;;;;;;13.41;65.20;97490.66;5025322;28;20485;-58
2022/11/03 06:10:30;;;;;;;33.75;14.82;;;;;;;13.63;64.84;97500.06;5025539;28;20136;-56
2022/11/03 06:13:04;;;;;;;38.50;14.93;;;;;;;13.63;64.26;97495.31;5025851;28;20061;-59
2022/11/03 06:15:34;;;;;;;39.45;13.50;;;;;;;13.11;64.05;97403.59;5025754;28;20061;-56
2022/11/03 06:18:13;;;;;;;41.08;14.88;;;;;;;13.85;63.59;97495.56;5029293;28;20077;-59
2022/11/03 06:20:40;;;;;;;34.10;13.50;;;;;;;13.62;63.30;97454.69;5043652;28;20144;-56
2022/11/03 06:23:14;;;;;;;37.42;11.45;;;;;;;13.38;65.02;97510.88;5044166;28;20053;-57
2022/11/03 06:25:42;;;;;;;;;;;;;;;13.50;65.24;97509.81;5043297;28;20132;-56
2022/11/03 06:28:33;;;;;;;41.33;14.02;;;;;;;13.48;64.43;97507.41;5023529;28;19925;-59
2022/11/03 06:31:00;;;;;;;58.88;21.17;;;;;;;13.43;64.49;97495.84;5025785;28;20077;-59
2022/11/03 06:33:32;;;;;;;42.20;13.27;;;;;;;13.69;64.38;97510.47;5025676;28;20143;-59
2022/11/03 06:36:12;;;;;;;51.80;17.30;;;;;;;13.46;64.47;97487.53;5025380;28;20575;-59
2022/11/03 06:38:39;;;;;;;42.25;13.82;;;;;;;13.69;64.97;97513.25;5025496;28;20142;-59
2022/11/03 06:41:16;;;;;;;44.72;11.57;;;;;;;13.73;64.73;97504.16;5023339;28;20527;-60
2022/11/03 06:43:44;;;;;;;55.78;15.25;;;;;;;13.57;64.31;97449.50;5025074;28;20181;-60
2022/11/03 06:46:24;;;;;;;65.30;17.70;;;;;;;14.05;64.36;97527.63;5025231;28;20135;-59
2022/11/03 06:48:54;;;;;;;56.55;15.75;;;;;;;13.95;63.84;97539.41;5020617;28;20522;-57
2022/11/03 06:51:23;;;;;;;51.33;19.30;;;;;;;14.33;62.34;97533.50;5020698;28;20088;-58
2022/11/03 06:53:52;;;;;;;40.97;15.25;;;;;;;14.47;61.26;97534.47;5021913;28;20594;-56
2022/11/03 06:56:21;;;;;;;56.85;15.77;;;;;;;14.78;60.53;97533.13;5021966;28;20187;-58
2022/11/03 06:58:50;;;;;;;53.72;17.50;;;;;;;14.92;60.40;97533.28;5022522;28;20096;-62
2022/11/03 07:01:23;;;;;;;44.60;14.02;;;;;;;15.17;59.42;97523.09;5023866;28;20088;-61
2022/11/03 07:03:55;;;;;;;30.45;12.50;;;;;;;14.76;57.78;97426.75;5011624;28;20072;-58
2022/11/03 07:06:27;;;;;;;37.22;12.88;;;;;;;15.70;57.79;97540.97;5029033;28;20511;-61
2022/11/03 07:08:57;;;;;;;30.65;11.10;;;;;;;15.85;54.50;97539.84;5023666;28;20590;-59
2022/11/03 07:11:26;;;;;;;24.27;10.15;;;;;;;15.99;53.68;97542.69;5024221;28;20111;-61
2022/11/03 07:14:01;;;;;;;29.20;10.43;;;;;;;16.02;53.63;97536.31;5023582;28;20907;-61
2022/11/03 07:16:36;;;;;;;28.67;10.55;;;;;;;15.97;53.65;97510.75;5023310;28;20593;-60
2022/11/03 07:19:33;;;;;;;25.38;10.32;;;;;;;16.13;53.32;97536.34;5004831;28;20074;-55
2022/11/03 07:22:05;;;;;;;24.33;9.65;;;;;;;16.20;52.38;97542.75;5018731;28;20142;-57
2022/11/03 07:24:44;;;;;;;29.90;9.43;;;;;;;16.20;51.94;97525.97;5024065;28;20140;-55
2022/11/03 07:27:38;;;;;;;19.65;9.88;;;;;;;16.52;51.52;97549.25;5022462;28;20508;-61
2022/11/03 07:30:25;;;;;;;22.13;9.98;;;;;;;16.20;51.26;97542.75;5022681;28;20049;-58
2022/11/03 07:32:53;;;;;;;25.67;11.00;;;;;;;16.47;50.90;97543.28;5032388;28;20057;-60
2022/11/03 07:35:32;;;;;;;32.78;12.10;;;;;;;16.63;50.83;97555.69;5019448;28;20146;-61
2022/11/03 07:38:21;;;;;;;21.80;10.73;;;;;;;16.08;50.54;97456.50;5019557;28;20049;-52
2022/11/03 07:40:50;;;;;;;54.58;12.95;;;;;;;16.38;50.80;97605.13;5020667;28;21363;-61
2022/11/03 07:43:37;;;;;;;49.50;14.07;;;;;;;16.07;51.87;97526.75;5021351;28;20098;-55
2022/11/03 07:46:04;;;;;;;41.45;13.07;;;;;;;16.02;51.41;97536.31;5022968;28;20377;-57
2022/11/03 07:48:42;;;;;;;36.15;12.50;;;;;;;16.04;51.29;97539.53;5022350;28;20461;-61
2022/11/03 07:51:31;;;;;;;37.95;13.60;;;;;;;16.38;51.10;97538.03;5023176;28;20081;-53
2022/11/03 07:54:07;;;;;;;56.35;15.32;;;;;;;16.59;50.47;97537.28;5023168;28;20061;-54
2022/11/03 07:56:47;;;;;;;34.67;13.00;;;;;;;16.81;50.13;97538.09;5022849;28;20050;-60
2022/11/03 07:59:27;;;;;;;50.35;15.00;;;;;;;16.28;50.45;97454.91;5022515;28;20045;-60
2022/11/03 08:01:56;;;;;;;32.00;12.63;;;;;;;17.25;49.67;97536.50;5023418;28;20058;-53
2022/11/03 08:04:34;;;;;;;33.97;13.30;;;;;;;17.67;48.83;97514.00;5023078;28;20054;-52
2022/11/03 08:07:01;;;;;;;43.47;14.52;;;;;;;18.04;47.83;97527.50;5022322;28;20109;-68
2022/11/03 08:09:27;;;;;;;36.40;14.65;;;;;;;18.52;47.11;97522.06;5026783;28;20131;-63
2022/11/03 08:11:54;;;;;;;38.58;15.80;;;;;;;17.73;47.54;97461.16;5028063;28;20073;-53
2022/11/03 08:14:20;;;;;;;50.30;18.00;;;;;;;17.88;47.30;97452.28;5026618;28;20045;-65
2022/11/03 08:16:47;;;;;;;40.88;16.02;;;;;;;18.21;47.08;97492.94;5026725;28;20067;-60
2022/11/03 08:19:14;;;;;;;41.05;16.65;;;;;;;18.57;46.52;97443.88;5028476;28;20491;-66
2022/11/03 08:21:40;;;;;;;36.60;14.75;;;;;;;19.20;46.24;97505.06;5026209;28;20053;-59
2022/11/03 08:24:07;;;;;;;34.35;15.10;;;;;;;19.55;45.08;97468.19;5027436;28;20049;-65
2022/11/03 08:26:34;;;;;;;31.17;14.43;;;;;;;19.69;44.31;97520.66;5025314;28;20053;-56
2022/11/03 08:29:00;;;;;;;34.55;14.73;;;;;;;19.63;43.86;97442.81;5027188;28;20092;-55
2022/11/03 08:31:27;;;;;;;31.92;14.48;;;;;;;20.27;42.94;97511.13;5027298;28;20139;-65
2022/11/03 08:33:54;;;;;;;28.95;13.93;;;;;;;20.31;43.05;97506.25;5028048;28;20061;-56
2022/11/03 08:36:21;;;;;;;28.63;12.68;;;;;;;20.95;42.29;97513.31;5025816;28;20082;-54
2022/11/03 08:38:48;;;;;;;33.55;13.05;;;;;;;21.00;41.34;97464.16;5026235;28;20143;-61
2022/11/03 08:41:14;;;;;;;23.30;11.32;;;;;;;21.41;40.56;97501.28;5032672;28;20053;-54
2022/11/03 08:43:41;;;;;;;24.58;11.27;;;;;;;21.57;40.31;97497.75;5026779;28;20131;-55
2022/11/03 08:46:08;;;;;;;20.27;9.90;;;;;;;21.33;39.81;97448.28;5027168;28;20136;-55
2022/11/03 08:48:44;;;;;;;22.25;11.25;;;;;;;21.54;40.08;97488.16;5026265;28;20056;-67
2022/11/03 08:51:12;;;;;;;24.13;11.07;;;;;;;21.60;39.56;97452.59;5027326;28;20049;-55
2022/11/03 08:53:43;;;;;;;25.70;11.20;;;;;;;20.79;40.34;97430.69;5026957;28;20057;-66
2022/11/03 08:56:11;;;;;;;25.75;11.05;;;;;;;21.30;40.34;97495.03;5025577;28;20107;-68
2022/11/03 08:58:41;;;;;;;23.27;11.30;;;;;;;21.66;39.93;97492.34;5027182;28;20045;-67
2022/11/03 09:01:07;;;;;;;22.45;11.52;;;;;;;21.21;40.43;97477.09;5025213;28;20556;-57
2022/11/03 09:03:34;;;;;;;25.00;11.40;;;;;;;21.40;40.36;97501.72;5026948;28;20057;-67
2022/11/03 09:06:01;;;;;;;25.00;10.93;;;;;;;21.15;41.05;97499.31;5027770;28;20049;-66
2022/11/03 09:08:27;;;;;;;17.40;11.10;;;;;;;21.09;40.84;97443.91;5027012;28;20072;-68
2022/11/03 09:11:14;;;;;;;20.23;11.10;;;;;;;21.44;40.44;97443.22;5026367;28;20068;-65
2022/11/03 09:13:40;;;;;;;22.92;10.40;;;;;;;21.79;40.12;97482.03;5026637;28;20099;-68
2022/11/03 09:16:07;;;;;;;30.50;13.20;;;;;;;19.72;39.85;97120.63;5025094;28;20073;-55
2022/11/03 09:18:34;;;;;;;24.58;12.48;;;;;;;21.44;39.89;97376.38;5026506;28;20140;-53
2022/11/03 09:21:00;;;;;;;26.25;13.68;;;;;;;21.95;39.85;97474.47;5024089;28;20088;-56
2022/11/03 09:23:27;;;;;;;27.23;12.82;;;;;;;19.60;40.61;97152.13;5024601;28;20708;-67
2022/11/03 09:25:54;;;;;;;26.83;13.43;;;;;;;21.18;40.99;97407.50;5026143;28;20084;-67
2022/11/03 09:28:20;;;;;;;21.30;10.82;;;;;;;21.74;40.73;97466.41;5025992;28;20156;-54
2022/11/03 09:30:47;;;;;;;29.00;12.77;;;;;;;20.99;41.58;97434.41;5025929;28;20049;-56
2022/11/03 09:33:13;;;;;;;24.52;10.63;;;;;;;20.41;42.41;97420.84;5026255;28;20495;-66
2022/11/03 09:35:40;;;;;;;32.42;12.95;;;;;;;20.46;42.74;97403.50;5025759;28;20164;-55
2022/11/03 09:38:07;;;;;;;25.88;10.77;;;;;;;21.03;42.10;97460.50;5025960;28;20084;-55
2022/11/03 09:40:34;;;;;;;27.25;12.43;;;;;;;20.63;42.88;97461.53;5024353;28;20072;-63
2022/11/03 09:43:02;;;;;;;19.65;12.10;;;;;;;19.46;42.97;97276.81;5025133;28;20053;-59
2022/11/03 09:45:28;;;;;;;26.95;11.13;;;;;;;20.78;42.81;97462.91;5006133;28;20057;-55
2022/11/03 09:47:55;;;;;;;26.42;11.50;;;;;;;21.03;42.15;97452.03;5013136;28;20231;-53
2022/11/03 09:50:22;;;;;;;25.65;11.32;;;;;;;20.82;42.33;97446.72;5019032;28;20049;-54
2022/11/03 09:52:54;;;;;;;20.45;10.70;;;;;;;20.78;42.09;97451.63;5023338;28;20149;-59
2022/11/03 09:55:24;;;;;;;27.80;13.15;;;;;;;20.49;42.78;97442.03;5025269;28;20132;-55
2022/11/03 09:57:53;;;;;;;28.80;15.32;;;;;;;20.74;42.08;97411.47;5025145;28;20081;-59
2022/11/03 10:00:22;;;;;;;24.52;11.07;;;;;;;20.71;42.32;97446.09;5024604;28;20049;-54
2022/11/03 10:02:49;;;;;;;21.75;12.02;;;;;;;21.30;41.69;97427.41;5024523;28;20104;-52
2022/11/03 10:05:26;;;;;;;19.48;9.68;;;;;;;21.40;41.06;97437.69;5024158;28;20507;-55
2022/11/03 10:07:58;;;;;;;35.50;15.63;;;;;;;21.42;41.06;97435.19;5025414;28;20081;-55
2022/11/03 10:10:25;;;;;;;26.20;11.70;;;;;;;21.80;40.91;97416.72;5005722;28;20053;-66
2022/11/03 10:12:52;;;;;;;28.33;12.93;;;;;;;21.90;40.38;97431.84;5017187;28;20085;-68
2022/11/03 10:15:22;;;;;;;35.97;16.17;;;;;;;22.02;40.08;97423.50;5025204;28;20119;-62
2022/11/03 10:17:51;;;;;;;13.25;7.60;;;;;;;21.38;40.73;97428.84;5025570;28;20493;-53
2022/11/03 10:20:20;;;;;;;24.25;11.02;;;;;;;21.70;40.63;97423.38;5025034;28;20104;-64
2022/11/03 10:22:52;;;;;;;25.33;11.65;;;;;;;21.30;40.57;97354.13;5022650;28;20127;-56
2022/11/03 10:25:37;;;;;;;23.95;13.30;;;;;;;21.51;41.09;97412.91;5024792;28;20605;-55
2022/11/03 10:28:21;;;;;;;21.02;9.85;;;;;;;21.58;40.84;97404.28;5024946;28;20191;-51
2022/11/03 10:30:49;;;;;;;25.92;10.38;;;;;;;21.68;40.19;97403.28;5024290;28;20181;-63
2022/11/03 10:33:49;;;;;;;16.48;8.75;;;;;;;21.72;39.88;97403.97;5024725;28;20061;-59
2022/11/03 10:36:15;;;;;;;17.33;9.70;;;;;;;21.42;40.62;97390.09;5024550;28;20092;-65
2022/11/03 10:38:43;;;;;;;23.70;9.43;;;;;;;21.32;40.54;97357.31;5024959;28;20148;-67
2022/11/03 10:41:21;;;;;;;20.80;9.23;;;;;;;21.87;39.91;97382.75;5023290;28;20210;-54
2022/11/03 10:44:20;;;;;;;48.63;21.83;;;;;;;21.82;40.42;97380.44;5014176;28;20140;-56
2022/11/03 10:47:02;;;;;;;17.70;9.73;;;;;;;21.48;40.50;97374.25;5022158;28;20057;-55
2022/11/03 10:49:34;;;;;;;21.52;10.40;;;;;;;21.30;40.62;97370.22;5023950;28;20054;-55
2022/11/03 10:52:22;;;;;;;18.60;9.90;;;;;;;21.69;40.33;97373.81;5024547;28;20575;-71
2022/11/03 10:54:51;;;;;;;18.08;8.82;;;;;;;21.85;39.82;97362.63;5022543;28;20084;-68
2022/11/03 10:57:19;;;;;;;19.05;9.27;;;;;;;22.01;39.46;97359.06;5022972;28;20115;-67
2022/11/03 10:59:48;;;;;;;21.27;8.27;;;;;;;22.21;39.58;97356.97;5024516;28;20480;-70
2022/11/03 11:02:19;;;;;;;21.65;8.50;;;;;;;22.11;39.05;97353.16;5024240;28;20573;-66
2022/11/03 11:04:57;;;;;;;18.08;8.32;;;;;;;19.96;39.42;97000.50;5023716;28;20063;-67
2022/11/03 11:07:27;;;;;;;23.48;10.15;;;;;;;;;;5031709;28;20507;-66
2022/11/03 11:09:54;;;;;;;14.35;7.97;;;;;;;22.72;38.53;97377.91;5026080;28;20141;-64
2022/11/03 11:12:24;;;;;;;19.40;9.02;;;;;;;22.19;38.62;97278.38;5025474;28;20057;-55
2022/11/03 11:14:54;;;;;;;19.02;11.70;;;;;;;22.49;38.91;97323.19;5021788;28;20046;-65
2022/11/03 11:17:41;;;;;;;18.88;8.85;;;;;;;22.80;38.70;97320.00;5024708;28;20132;-54
2022/11/03 11:20:18;;;;;;;20.50;10.25;;;;;;;22.85;38.88;97316.63;5024100;28;20045;-64
2022/11/03 11:22:45;;;;;;;17.13;6.75;;;;;;;21.83;39.27;97245.84;5021999;28;20131;-64
2022/11/03 11:25:11;;;;;;;22.85;11.13;;;;;;;22.02;40.16;97321.94;5024549;28;20075;-62
2022/11/03 11:27:38;;;;;;;20.52;8.82;;;;;;;22.45;39.75;97308.38;5022225;28;20581;-53
2022/11/03 11:30:26;;;;;;;18.25;8.63;;;;;;;22.38;39.42;97259.78;5022751;28;20077;-63
2022/11/03 11:33:00;;;;;;;20.42;9.70;;;;;;;22.77;39.43;97303.94;5023371;28;20112;-64
2022/11/03 11:35:26;;;;;;;21.42;10.45;;;;;;;22.79;39.39;97304.31;5021795;28;20049;-57
2022/11/03 11:37:53;;;;;;;20.73;8.43;;;;;;;22.52;39.89;97298.16;5022557;28;20176;-61
2022/11/03 11:40:22;;;;;;;17.85;8.73;;;;;;;22.61;39.59;97301.13;5022425;28;20054;-69
2022/11/03 11:43:01;;;;;;;20.00;9.10;;;;;;;22.61;39.91;97296.28;5020786;28;20049;-57
2022/11/03 11:46:05;;;;;;;21.50;9.90;;;;;;;22.99;39.33;97288.00;5011211;28;20084;-63
2022/11/03 11:48:33;;;;;;;15.32;8.68;;;;;;;22.57;40.41;97289.16;5026501;28;20088;-70
2022/11/03 11:51:01;;;;;;;21.58;8.98;;;;;;;22.76;39.98;97285.41;5038030;28;20136;-61
2022/11/03 11:53:38;;;;;;;25.67;11.60;;;;;;;22.46;40.02;97216.78;5030707;28;20558;-64
2022/11/03 11:56:09;;;;;;;24.42;11.50;;;;;;;23.14;40.01;97289.19;5023261;28;20096;-59
2022/11/03 11:58:49;;;;;;;19.92;9.07;;;;;;;23.10;39.68;97277.19;5023632;28;20092;-62
2022/11/03 12:01:28;;;;;;;15.57;6.80;;;;;;;22.85;40.28;97271.44;5023176;28;20057;-66